Time;durP1;ratioP1;P1;durP2;ratioP2;P2;SDS_P1;SDS_P2;PMS_P1;PMS_P2;Temp;Humidity;BMP_temperature;BMP_pressure;BME280_temperature;BME280_humidity;BME280_pressure;Samples;Min_cycle;Max_cycle;Signal;HPM_P1;HPM_P2
2023/04/12 00:02:07;;;;;;;5.40;1.67;;;7.20;99.90;;;;;;5024625;28;20037;-85
2023/04/12 00:04:34;;;;;;;7.25;1.73;;;7.30;99.90;;;;;;5054306;28;20041;-85
2023/04/12 00:07:01;;;;;;;10.93;1.92;;;7.20;99.90;;;;;;5037725;28;20066;-86
2023/04/12 00:09:29;;;;;;;7.65;1.80;;;7.20;99.90;;;;;;5037706;28;20044;-85
2023/04/12 00:11:58;;;;;;;6.10;1.73;;;7.20;99.90;;;;;;5061794;28;20119;-88
2023/04/12 00:14:25;;;;;;;6.20;1.77;;;7.30;99.90;;;;;;5021650;28;20048;-85
2023/04/12 00:16:51;;;;;;;6.32;1.58;;;7.30;99.90;;;;;;5031647;28;20044;-87
2023/04/12 00:19:17;;;;;;;7.15;2.20;;;7.30;99.90;;;;;;5074320;28;20055;-85
2023/04/12 00:21:43;;;;;;;6.68;2.20;;;7.30;99.90;;;;;;5058133;28;20044;-85
2023/04/12 00:24:09;;;;;;;6.03;1.60;;;7.40;99.90;;;;;;5091711;28;20130;-87
2023/04/12 00:26:35;;;;;;;7.57;2.17;;;7.60;99.90;;;;;;5070142;28;20044;-85
2023/04/12 00:29:00;;;;;;;7.90;1.98;;;7.40;99.90;;;;;;5058359;28;20070;-85
2023/04/12 00:31:26;;;;;;;7.43;1.70;;;7.50;99.90;;;;;;5058264;28;20046;-85
2023/04/12 00:33:52;;;;;;;8.93;1.90;;;7.60;99.90;;;;;;5073477;28;20435;-85
2023/04/12 00:36:18;;;;;;;4.55;2.35;;;7.70;99.90;;;;;;5062462;28;20052;-85
2023/04/12 00:38:46;;;;;;;6.07;2.03;;;7.60;99.90;;;;;;5044919;28;20082;-84
2023/04/12 00:41:13;;;;;;;6.25;2.10;;;7.60;99.90;;;;;;5066043;28;20042;-84
2023/04/12 00:43:40;;;;;;;5.03;1.48;;;7.60;99.90;;;;;;5057864;28;20453;-86
2023/04/12 00:46:07;;;;;;;8.07;1.83;;;7.60;99.90;;;;;;5056891;28;20059;-85
2023/04/12 00:48:33;;;;;;;6.75;1.85;;;7.70;99.90;;;;;;5058008;28;20530;-84
2023/04/12 00:51:00;;;;;;;8.32;1.90;;;7.70;99.90;;;;;;5071773;28;20058;-85
2023/04/12 00:53:26;;;;;;;4.13;1.58;;;7.70;99.90;;;;;;5057709;28;20105;-85
2023/04/12 00:55:53;;;;;;;7.13;1.70;;;7.70;99.90;;;;;;5048424;28;20048;-86
2023/04/12 00:58:23;;;;;;;5.55;1.85;;;7.70;99.90;;;;;;5050992;28;20048;-87
2023/04/12 01:00:49;;;;;;;6.72;1.70;;;7.70;99.90;;;;;;5064234;28;20097;-86
2023/04/12 01:03:21;;;;;;;3.45;1.90;;;7.80;99.90;;;;;;5047398;28;20044;-85
2023/04/12 01:06:03;;;;;;;6.32;2.10;;;7.70;99.90;;;;;;5055531;28;20052;-85
2023/04/12 01:09:00;;;;;;;4.38;1.63;;;7.80;99.90;;;;;;5064918;28;20075;-85
2023/04/12 01:11:32;;;;;;;7.38;1.98;;;7.90;99.90;;;;;;5047948;28;20036;-85
2023/04/12 01:14:15;;;;;;;6.57;1.90;;;7.90;99.90;;;;;;5087160;28;20036;-85
2023/04/12 01:16:53;;;;;;;7.80;1.63;;;7.80;99.90;;;;;;5076226;28;20424;-85
2023/04/12 01:19:36;;;;;;;9.20;2.40;;;8.10;99.90;;;;;;5069771;28;20052;-85
2023/04/12 01:22:15;;;;;;;9.25;1.95;;;7.90;99.90;;;;;;5033850;28;20956;-85
2023/04/12 01:25:04;;;;;;;10.90;2.10;;;7.90;99.90;;;;;;5046631;28;20047;-85
2023/04/12 01:27:45;;;;;;;7.50;2.03;;;7.90;99.90;;;;;;5044071;28;20072;-85
2023/04/12 01:30:14;;;;;;;8.27;1.95;;;7.90;99.90;;;;;;5050451;28;20138;-85
2023/04/12 01:32:44;;;;;;;7.38;1.83;;;7.90;99.90;;;;;;5065943;28;20490;-85
2023/04/12 01:35:11;;;;;;;6.03;1.77;;;7.90;99.90;;;;;;5064299;28;20086;-85
2023/04/12 01:37:38;;;;;;;8.35;1.98;;;7.90;99.90;;;;;;5065728;28;20115;-84
2023/04/12 01:40:04;;;;;;;5.10;1.63;;;7.90;99.90;;;;;;5040404;28;20052;-86
2023/04/12 01:42:31;;;;;;;6.55;1.92;;;7.90;99.90;;;;;;5043989;28;20044;-86
2023/04/12 01:44:57;;;;;;;11.82;2.15;;;7.90;99.90;;;;;;5070006;28;20077;-85
2023/04/12 01:47:23;;;;;;;3.90;2.05;;;7.90;99.90;;;;;;5035819;28;20134;-85
2023/04/12 01:50:16;;;;;;;6.13;1.92;;;7.90;99.90;;;;;;5039753;28;20051;-85
2023/04/12 01:53:00;;;;;;;17.83;2.33;;;7.90;99.90;;;;;;5036979;28;20048;-86
2023/04/12 01:55:30;;;;;;;5.32;1.90;;;7.90;99.90;;;;;;5050753;28;20047;-85
2023/04/12 01:57:56;;;;;;;5.22;1.88;;;7.90;99.90;;;;;;5051934;28;20482;-86
2023/04/12 02:00:23;;;;;;;10.20;2.08;;;7.90;1.00;;;;;;5044032;28;20063;-85
2023/04/12 02:02:49;;;;;;;5.35;2.03;;;7.90;1.00;;;;;;5039788;28;20390;-85
2023/04/12 02:05:15;;;;;;;8.18;2.10;;;8.00;1.00;;;;;;5040445;28;20044;-86
2023/04/12 02:07:43;;;;;;;8.13;2.00;;;7.80;1.00;;;;;;5048657;28;20404;-86
2023/04/12 02:10:13;;;;;;;5.70;2.10;;;7.80;1.00;;;;;;5051332;28;20080;-86
2023/04/12 02:12:40;;;;;;;6.70;1.88;;;7.80;1.00;;;;;;5036036;28;20094;-86
2023/04/12 02:15:07;;;;;;;9.73;1.85;;;7.80;1.00;;;;;;5051565;28;20040;-85
2023/04/12 02:17:35;;;;;;;9.18;3.10;;;7.70;1.00;;;;;;5025034;28;20080;-85
2023/04/12 02:20:01;;;;;;;5.63;1.65;;;7.70;10.20;;;;;;5008088;28;20120;-86
2023/04/12 02:22:27;;;;;;;8.25;1.60;;;7.70;27.90;;;;;;5040387;28;20044;-86
2023/04/12 02:24:52;;;;;;;8.95;1.70;;;7.70;75.90;;;;;;5027170;28;20509;-87
2023/04/12 02:27:18;;;;;;;11.60;2.15;;;7.70;98.10;;;;;;5050800;28;20071;-86
2023/04/12 02:29:44;;;;;;;5.15;1.63;;;7.70;99.90;;;;;;5026022;28;20110;-86
2023/04/12 02:32:10;;;;;;;4.35;1.63;;;7.70;99.90;;;;;;5056326;28;20076;-86
2023/04/12 02:34:37;;;;;;;5.55;1.80;;;7.80;99.90;;;;;;5025125;28;20189;-85
2023/04/12 02:37:03;;;;;;;5.30;1.38;;;7.70;99.90;;;;;;5037999;28;20048;-86
2023/04/12 02:39:31;;;;;;;3.67;1.77;;;7.60;99.90;;;;;;5032096;28;20052;-86
2023/04/12 02:41:57;;;;;;;6.72;1.90;;;7.70;99.90;;;;;;5042001;28;20044;-86
2023/04/12 02:44:22;;;;;;;7.10;1.67;;;7.70;99.90;;;;;;5042015;28;20611;-87
2023/04/12 02:46:48;;;;;;;7.45;1.80;;;7.60;99.90;;;;;;5054947;28;20127;-86
2023/04/12 02:49:14;;;;;;;6.63;1.55;;;7.60;99.90;;;;;;5042395;28;20041;-87
2023/04/12 02:51:40;;;;;;;6.30;1.50;;;7.60;99.90;;;;;;5054251;28;20482;-86
2023/04/12 02:54:06;;;;;;;5.68;1.42;;;7.60;99.90;;;;;;5038140;28;20503;-89
2023/04/12 02:56:34;;;;;;;8.00;2.05;;;7.60;99.90;;;;;;5034972;28;20131;-86
2023/04/12 02:59:00;;;;;;;6.00;1.60;;;7.90;99.90;;;;;;5054438;28;20048;-85
2023/04/12 03:01:26;;;;;;;8.40;1.48;;;7.60;99.90;;;;;;5038983;28;20051;-85
2023/04/12 03:03:51;;;;;;;2.33;1.10;;;7.60;99.90;;;;;;5050231;28;20071;-85
2023/04/12 03:06:17;;;;;;;7.53;1.90;;;7.60;99.90;;;;;;5021411;28;20979;-85
2023/04/12 03:08:43;;;;;;;5.82;1.33;;;7.60;99.90;;;;;;5054778;28;20107;-85
2023/04/12 03:11:09;;;;;;;6.45;1.55;;;7.60;99.90;;;;;;5035626;28;20040;-86
2023/04/12 03:13:35;;;;;;;5.55;1.50;;;7.60;99.90;;;;;;5037469;28;20058;-84
2023/04/12 03:16:20;;;;;;;5.57;2.35;;;7.60;99.90;;;;;;5070506;28;20053;-85
2023/04/12 03:18:46;;;;;;;4.63;1.40;;;7.60;99.90;;;;;;5051629;28;20506;-85
2023/04/12 03:21:12;;;;;;;7.90;1.27;;;7.60;99.90;;;;;;5028689;28;20047;-85
2023/04/12 03:23:37;;;;;;;5.57;1.30;;;7.60;99.90;;;;;;5018908;28;20036;-85
2023/04/12 03:26:03;;;;;;;2.25;1.20;;;7.60;99.90;;;;;;5026638;28;20051;-85
2023/04/12 03:28:29;;;;;;;6.72;2.30;;;7.70;99.90;;;;;;5017709;28;20536;-87
2023/04/12 03:30:55;;;;;;;6.00;2.08;;;7.70;99.90;;;;;;5053572;28;20097;-85
2023/04/12 03:33:21;;;;;;;3.42;1.20;;;7.70;99.90;;;;;;5054440;28;20055;-86
2023/04/12 03:35:46;;;;;;;4.78;1.55;;;7.70;99.90;;;;;;5070847;28;20840;-85
2023/04/12 03:38:12;;;;;;;2.72;0.98;;;7.70;99.90;;;;;;5034341;28;20048;-85
2023/04/12 03:40:38;;;;;;;5.45;1.55;;;7.70;99.90;;;;;;5048546;28;20118;-85
2023/04/12 03:43:03;;;;;;;5.78;1.55;;;7.70;99.90;;;;;;5021006;28;20055;-87
2023/04/12 03:45:29;;;;;;;3.15;1.15;;;7.70;99.90;;;;;;5019599;28;20048;-86
2023/04/12 03:47:55;;;;;;;3.95;1.33;;;7.70;99.90;;;;;;5036446;28;20584;-84
2023/04/12 03:50:21;;;;;;;3.75;1.30;;;7.70;99.90;;;;;;5053270;28;20052;-87
2023/04/12 03:52:47;;;;;;;4.05;1.45;;;7.70;99.90;;;;;;5050559;28;20049;-85
2023/04/12 03:55:16;;;;;;;2.55;1.08;;;7.70;99.90;;;;;;5033074;28;20182;-85
2023/04/12 03:57:42;;;;;;;3.60;1.20;;;7.70;99.90;;;;;;5052679;28;20093;-86
2023/04/12 04:00:09;;;;;;;5.18;1.30;;;7.70;99.90;;;;;;5035824;28;20144;-87
2023/04/12 04:02:35;;;;;;;3.00;1.33;;;7.70;99.90;;;;;;5017213;28;20033;-85
2023/04/12 04:05:02;;;;;;;3.67;1.42;;;7.80;99.90;;;;;;5053666;28;20097;-87
2023/04/12 04:07:28;;;;;;;8.75;1.50;;;7.70;99.90;;;;;;5033576;28;20048;-88
2023/04/12 04:09:54;;;;;;;6.18;1.60;;;7.70;99.90;;;;;;5018362;28;20052;-85
2023/04/12 04:12:20;;;;;;;6.72;1.70;;;7.70;99.90;;;;;;5064183;28;20041;-86
2023/04/12 04:14:46;;;;;;;5.65;1.40;;;7.70;99.90;;;;;;5053687;28;20493;-85
2023/04/12 04:17:11;;;;;;;4.88;1.67;;;7.70;99.90;;;;;;5028098;28;20049;-85
2023/04/12 04:19:38;;;;;;;6.20;1.70;;;7.60;99.90;;;;;;5054034;28;20048;-85
2023/04/12 04:22:03;;;;;;;5.57;1.88;;;7.60;99.90;;;;;;5052431;28;20122;-85
2023/04/12 04:24:29;;;;;;;2.95;1.60;;;7.60;99.90;;;;;;5021565;28;20082;-86
2023/04/12 04:26:55;;;;;;;5.30;1.50;;;7.50;99.90;;;;;;5034613;28;21460;-86
2023/04/12 04:29:20;;;;;;;6.28;1.80;;;7.50;99.90;;;;;;5037925;28;20473;-86
2023/04/12 04:31:47;;;;;;;5.25;1.77;;;7.40;99.90;;;;;;5028650;28;20055;-86
2023/04/12 04:34:13;;;;;;;5.80;1.80;;;7.40;99.90;;;;;;5035859;28;20044;-86
2023/04/12 04:36:40;;;;;;;6.00;1.67;;;7.30;1.00;;;;;;5037289;28;20110;-87
2023/04/12 04:39:06;;;;;;;8.00;2.20;;;7.30;1.00;;;;;;5056774;28;20036;-85
2023/04/12 04:41:38;;;;;;;6.40;1.85;;;7.30;1.00;;;;;;5020262;28;20036;-85
2023/04/12 04:44:10;;;;;;;6.45;1.80;;;7.20;1.00;;;;;;5071326;28;20123;-84
2023/04/12 04:46:36;;;;;;;5.20;2.03;;;7.20;1.00;;;;;;5054070;28;20087;-88
2023/04/12 04:49:03;;;;;;;5.25;1.67;;;7.20;1.00;;;;;;5037012;28;20474;-86
2023/04/12 04:51:29;;;;;;;6.55;2.50;;;7.20;1.00;;;;;;5019954;28;20083;-85
2023/04/12 04:53:55;;;;;;;7.93;2.10;;;7.20;1.00;;;;;;5036093;28;20439;-86
2023/04/12 04:56:23;;;;;;;8.43;2.17;;;7.20;1.00;;;;;;5050184;28;20068;-88
2023/04/12 04:58:49;;;;;;;6.18;2.25;;;7.20;1.00;;;;;;5028823;28;20055;-86
2023/04/12 05:01:15;;;;;;;9.13;3.05;;;7.20;1.00;;;;;;5044790;28;20071;-86
2023/04/12 05:03:43;;;;;;;8.13;2.42;;;7.20;1.00;;;;;;5063311;28;20074;-86
2023/04/12 05:06:10;;;;;;;6.38;3.03;;;7.20;1.00;;;;;;5040259;28;20107;-85
2023/04/12 05:08:35;;;;;;;8.77;2.42;;;7.20;1.00;;;;;;5051554;28;20402;-86
2023/04/12 05:11:01;;;;;;;10.07;2.60;;;7.20;1.00;;;;;;5031428;28;20040;-86
2023/04/12 05:13:27;;;;;;;6.28;2.70;;;7.20;1.00;;;;;;5045643;28;20044;-85
2023/04/12 05:15:53;;;;;;;5.85;2.95;;;7.20;1.00;;;;;;5025425;28;20445;-86
2023/04/12 05:18:19;;;;;;;7.88;2.65;;;7.10;1.00;;;;;;5017449;28;20044;-87
2023/04/12 05:20:47;;;;;;;8.35;2.55;;;7.20;1.00;;;;;;5037492;28;20044;-86
2023/04/12 05:23:13;;;;;;;4.82;2.05;;;7.10;23.60;;;;;;5031599;28;20148;-86
2023/04/12 05:25:48;;;;;;;6.65;2.42;;;7.20;46.30;;;;;;5050377;28;20505;-87
2023/04/12 05:28:16;;;;;;;7.63;2.67;;;7.10;56.50;;;;;;5049606;28;20127;-85
2023/04/12 05:30:43;;;;;;;7.50;2.40;;;7.20;71.40;;;;;;5051892;28;20056;-87
2023/04/12 05:33:08;;;;;;;9.25;2.40;;;7.20;71.90;;;;;;5020127;28;20048;-86
2023/04/12 05:35:34;;;;;;;5.50;2.38;;;7.40;70.60;;;;;;5052313;28;20051;-85
2023/04/12 05:38:00;;;;;;;4.85;2.22;;;7.20;76.30;;;;;;5035197;28;20040;-86
2023/04/12 05:40:26;;;;;;;6.22;1.95;;;7.30;77.40;;;;;;5019664;28;20565;-84
2023/04/12 05:42:51;;;;;;;8.13;1.80;;;7.20;77.70;;;;;;5052126;28;20067;-85
2023/04/12 05:45:17;;;;;;;8.15;2.47;;;7.20;78.80;;;;;;5036644;28;20101;-85
2023/04/12 05:47:43;;;;;;;6.80;2.58;;;7.20;83.70;;;;;;5048118;28;20128;-86
2023/04/12 05:50:09;;;;;;;5.72;2.20;;;7.30;86.90;;;;;;5018932;28;20072;-88
2023/04/12 05:52:36;;;;;;;4.22;2.00;;;7.20;91.00;;;;;;5053421;28;20047;-86
2023/04/12 05:55:01;;;;;;;5.72;2.00;;;7.20;92.30;;;;;;5044572;28;20047;-81
2023/04/12 05:57:27;;;;;;;4.57;1.80;;;7.20;95.80;;;;;;5042739;28;20877;-81
2023/04/12 05:59:53;;;;;;;5.55;1.80;;;7.20;98.80;;;;;;5039981;28;20583;-88
2023/04/12 06:02:19;;;;;;;5.57;2.03;;;7.30;99.90;;;;;;5035508;28;20037;-85
2023/04/12 06:04:45;;;;;;;9.13;2.28;;;7.30;99.90;;;;;;5036871;28;20414;-84
2023/04/12 06:07:11;;;;;;;6.57;2.40;;;7.30;99.90;;;;;;5051842;28;20036;-85
2023/04/12 06:09:36;;;;;;;5.38;2.22;;;7.30;99.90;;;;;;5037204;28;20045;-86
2023/04/12 06:12:02;;;;;;;6.70;2.30;;;7.30;99.90;;;;;;5043320;28;20047;-85
2023/04/12 06:14:28;;;;;;;8.95;2.17;;;7.30;99.90;;;;;;5035669;28;20091;-87
2023/04/12 06:16:53;;;;;;;5.85;1.92;;;7.20;99.90;;;;;;5020383;28;20048;-85
2023/04/12 06:19:19;;;;;;;8.55;2.33;;;7.30;99.90;;;;;;5037503;28;20053;-85
2023/04/12 06:21:45;;;;;;;8.85;2.47;;;7.30;99.90;;;;;;5055187;28;20055;-85
2023/04/12 06:24:11;;;;;;;5.22;2.17;;;7.30;99.90;;;;;;5047863;28;20186;-85
2023/04/12 06:26:37;;;;;;;13.40;3.85;;;7.60;99.90;;;;;;5022158;28;20521;-85
2023/04/12 06:29:02;;;;;;;7.50;2.90;;;7.30;99.90;;;;;;5045227;28;20041;-85
2023/04/12 06:31:28;;;;;;;6.28;2.60;;;7.30;99.90;;;;;;5020081;28;20056;-85
2023/04/12 06:33:54;;;;;;;6.93;2.42;;;7.30;99.90;;;;;;5042931;28;20106;-87
2023/04/12 06:36:19;;;;;;;7.57;2.33;;;7.30;99.90;;;;;;5030622;28;20033;-85
2023/04/12 06:38:45;;;;;;;8.80;2.47;;;7.40;99.90;;;;;;5031895;28;20053;-84
2023/04/12 06:41:11;;;;;;;8.73;2.30;;;7.30;99.90;;;;;;5032361;28;20098;-85
2023/04/12 06:43:37;;;;;;;6.93;2.30;;;7.40;99.90;;;;;;5055223;28;20154;-84
2023/04/12 06:46:02;;;;;;;6.32;2.22;;;7.20;99.90;;;;;;5020051;28;20119;-84
2023/04/12 06:48:28;;;;;;;8.13;3.03;;;7.30;99.90;;;;;;5022995;28;20040;-84
2023/04/12 06:50:55;;;;;;;6.18;2.40;;;7.30;99.90;;;;;;5058154;28;20041;-85
2023/04/12 06:53:20;;;;;;;6.40;2.28;;;7.30;99.90;;;;;;5040777;28;20052;-84
2023/04/12 06:55:47;;;;;;;7.05;2.22;;;7.40;99.90;;;;;;5047064;28;20036;-84
2023/04/12 06:58:13;;;;;;;6.72;2.67;;;7.40;99.90;;;;;;5032537;28;20052;-84
2023/04/12 07:00:39;;;;;;;5.55;2.85;;;7.40;99.90;;;;;;5040849;28;20477;-85
2023/04/12 07:03:04;;;;;;;4.82;2.40;;;7.40;99.90;;;;;;5036819;28;20496;-85
2023/04/12 07:05:30;;;;;;;5.68;2.67;;;7.50;99.90;;;;;;5030530;28;20079;-84
2023/04/12 07:07:56;;;;;;;8.27;2.83;;;7.50;99.90;;;;;;5021066;28;20118;-84
2023/04/12 07:10:21;;;;;;;5.55;2.80;;;7.50;99.90;;;;;;5033749;28;20060;-84
2023/04/12 07:12:48;;;;;;;8.90;2.70;;;7.50;99.90;;;;;;5024332;28;20097;-83
2023/04/12 07:15:14;;;;;;;12.80;3.47;;;7.50;99.90;;;;;;5058132;28;20052;-83
2023/04/12 07:17:39;;;;;;;6.97;2.40;;;7.50;99.90;;;;;;5048077;28;20061;-85
2023/04/12 07:20:06;;;;;;;10.00;3.00;;;7.50;99.90;;;;;;5038532;28;20040;-85
2023/04/12 07:22:31;;;;;;;9.02;3.00;;;7.50;99.90;;;;;;5031746;28;20045;-85
2023/04/12 07:24:57;;;;;;;5.28;2.78;;;7.50;99.90;;;;;;5036708;28;20053;-86
2023/04/12 07:27:23;;;;;;;10.35;2.67;;;7.50;99.90;;;;;;5018755;28;20091;-84
2023/04/12 07:29:51;;;;;;;10.25;3.22;;;7.50;99.90;;;;;;5035434;28;20123;-86
2023/04/12 07:32:17;;;;;;;7.95;2.90;;;7.50;99.90;;;;;;5053379;28;20055;-87
2023/04/12 07:34:43;;;;;;;8.95;3.60;;;7.50;99.90;;;;;;5040945;28;20052;-83
2023/04/12 07:37:08;;;;;;;7.53;3.20;;;7.50;99.90;;;;;;5045852;28;20048;-86
2023/04/12 07:39:34;;;;;;;7.13;2.92;;;7.30;99.90;;;;;;5051764;28;20049;-84
2023/04/12 07:42:00;;;;;;;8.55;3.28;;;7.60;99.90;;;;;;5030886;28;20044;-86
2023/04/12 07:44:26;;;;;;;5.95;3.47;;;7.50;99.90;;;;;;5037158;28;20889;-84
2023/04/12 07:46:52;;;;;;;6.32;3.33;;;7.60;99.90;;;;;;5030576;28;20055;-88
2023/04/12 07:49:18;;;;;;;6.25;3.10;;;7.60;99.90;;;;;;5037013;28;20511;-84
2023/04/12 07:51:44;;;;;;;5.70;3.20;;;7.60;99.90;;;;;;5028451;28;20103;-86
2023/04/12 07:54:09;;;;;;;3.90;3.00;;;7.60;99.90;;;;;;5015536;28;20730;-85
2023/04/12 07:56:35;;;;;;;3.92;2.92;;;7.60;99.90;;;;;;5027596;28;20053;-87
2023/04/12 07:59:01;;;;;;;8.98;4.72;;;7.60;99.90;;;;;;5065461;28;20036;-85
2023/04/12 08:01:27;;;;;;;8.13;4.00;;;7.60;99.90;;;;;;5027462;28;20052;-84
2023/04/12 08:03:52;;;;;;;8.20;3.83;;;7.70;99.90;;;;;;5036612;28;20148;-84
2023/04/12 08:06:18;;;;;;;7.18;3.90;;;7.70;99.90;;;;;;5003157;28;20135;-84
2023/04/12 08:08:44;;;;;;;8.15;3.75;;;7.70;99.90;;;;;;5046889;28;20048;-84
2023/04/12 08:11:10;;;;;;;7.30;3.10;;;7.70;99.90;;;;;;5052870;28;20050;-84
2023/04/12 08:13:36;;;;;;;8.20;4.13;;;7.70;99.90;;;;;;5016316;28;20045;-84
2023/04/12 08:16:01;;;;;;;10.00;4.35;;;8.00;99.90;;;;;;5035143;28;20047;-84
2023/04/12 08:18:28;;;;;;;7.10;3.50;;;7.80;99.90;;;;;;5036846;28;20102;-86
2023/04/12 08:20:55;;;;;;;6.93;3.72;;;7.90;99.90;;;;;;5030230;28;20050;-85
2023/04/12 08:23:21;;;;;;;7.25;4.07;;;7.90;99.90;;;;;;5056952;28;20052;-84
2023/04/12 08:25:47;;;;;;;9.63;3.72;;;7.80;99.90;;;;;;5035983;28;20052;-84
2023/04/12 08:28:13;;;;;;;9.32;4.28;;;7.90;99.90;;;;;;5026976;28;20076;-84
2023/04/12 08:30:38;;;;;;;10.68;4.97;;;8.00;99.90;;;;;;5033857;28;21605;-82
2023/04/12 08:33:04;;;;;;;13.30;6.93;;;8.00;99.90;;;;;;5021075;28;20045;-82
2023/04/12 08:35:30;;;;;;;8.88;4.65;;;8.00;99.90;;;;;;5040915;28;20131;-83
2023/04/12 08:38:06;;;;;;;10.23;4.88;;;8.10;99.90;;;;;;5118346;27;20467;-81
2023/04/12 08:40:32;;;;;;;8.55;4.72;;;8.10;99.90;;;;;;5070640;28;20129;-82
2023/04/12 08:43:02;;;;;;;12.38;5.68;;;8.20;99.90;;;;;;5070407;28;20086;-81
2023/04/12 08:45:30;;;;;;;6.57;4.93;;;8.20;99.90;;;;;;5064222;28;20052;-81
2023/04/12 08:47:59;;;;;;;7.55;4.82;;;8.20;99.90;;;;;;5084029;28;20059;-81
2023/04/12 08:50:25;;;;;;;7.20;4.35;;;8.20;99.90;;;;;;5036243;28;20055;-81
2023/04/12 08:52:52;;;;;;;7.95;5.22;;;8.20;99.90;;;;;;5044788;28;20135;-81
2023/04/12 08:55:17;;;;;;;7.80;5.30;;;8.20;99.90;;;;;;5095771;28;20066;-81
2023/04/12 08:57:43;;;;;;;7.65;5.07;;;8.20;99.90;;;;;;5069156;28;20040;-82
2023/04/12 09:00:11;;;;;;;11.73;5.80;;;8.30;99.90;;;;;;5069610;28;20040;-82
2023/04/12 09:02:38;;;;;;;8.10;4.90;;;8.30;99.90;;;;;;5057117;28;20374;-82
2023/04/12 09:05:05;;;;;;;7.72;5.13;;;8.30;99.90;;;;;;5054237;28;20052;-84
2023/04/12 09:07:31;;;;;;;9.43;4.97;;;8.40;99.90;;;;;;5056376;28;20055;-83
2023/04/12 09:09:57;;;;;;;12.80;6.10;;;8.50;99.90;;;;;;5091139;28;20036;-83
2023/04/12 09:12:23;;;;;;;10.80;6.47;;;8.50;99.90;;;;;;5099534;28;20150;-83
2023/04/12 09:15:13;;;;;;;8.20;5.72;;;8.50;99.90;;;;;;5088812;28;20528;-83
2023/04/12 09:17:40;;;;;;;8.75;5.30;;;8.40;99.90;;;;;;5095172;28;20047;-84
2023/04/12 09:20:14;;;;;;;10.52;7.18;;;8.30;99.90;;;;;;5060787;28;20052;-82
2023/04/12 09:22:43;;;;;;;10.90;7.05;;;8.30;99.90;;;;;;5071287;28;20124;-82
2023/04/12 09:25:10;;;;;;;10.48;6.93;;;8.40;99.90;;;;;;5069690;28;20059;-83
2023/04/12 09:27:46;;;;;;;12.48;7.22;;;8.30;99.90;;;;;;5061781;28;20103;-82
2023/04/12 09:30:13;;;;;;;9.23;7.00;;;8.40;99.90;;;;;;5085029;28;20119;-82
2023/04/12 09:32:39;;;;;;;12.18;7.63;;;8.60;99.90;;;;;;5066470;28;20040;-83
2023/04/12 09:35:05;;;;;;;11.13;7.05;;;8.60;99.90;;;;;;5053909;28;20048;-81
2023/04/12 09:37:31;;;;;;;11.55;7.75;;;8.80;99.90;;;;;;5059986;28;20120;-82
2023/04/12 09:40:04;;;;;;;22.10;12.05;;;9.10;99.90;;;;;;5064588;28;20181;-81
2023/04/12 09:42:33;;;;;;;13.55;8.65;;;9.30;99.90;;;;;;5039085;28;20420;-82
2023/04/12 09:45:00;;;;;;;10.43;7.95;;;9.50;99.90;;;;;;5069626;28;20104;-83
2023/04/12 09:47:39;;;;;;;11.02;7.05;;;9.60;99.90;;;;;;5035331;28;20047;-81
2023/04/12 09:50:08;;;;;;;12.77;8.85;;;9.80;99.90;;;;;;5047798;28;20043;-82
2023/04/12 09:52:38;;;;;;;10.50;7.90;;;9.90;99.90;;;;;;5074536;28;20063;-80
2023/04/12 09:55:11;;;;;;;12.18;8.80;;;10.00;99.90;;;;;;5090442;28;20531;-80
2023/04/12 09:57:41;;;;;;;12.25;8.88;;;10.00;99.90;;;;;;5052059;28;20503;-80
2023/04/12 10:00:18;;;;;;;12.00;8.18;;;10.30;99.90;;;;;;5075452;28;20083;-80
2023/04/12 10:02:51;;;;;;;10.38;8.15;;;10.60;99.90;;;;;;5072905;28;20098;-81
2023/04/12 10:05:20;;;;;;;14.38;8.45;;;10.90;99.90;;;;;;5057140;28;20102;-81
2023/04/12 10:07:46;;;;;;;13.90;8.32;;;11.00;99.90;;;;;;5064261;28;20386;-82
2023/04/12 10:10:15;;;;;;;15.77;9.23;;;11.00;99.90;;;;;;5049423;28;20078;-81
2023/04/12 10:12:42;;;;;;;10.05;7.47;;;10.80;99.90;;;;;;5058746;28;20497;-82
2023/04/12 10:15:12;;;;;;;9.05;6.30;;;10.60;99.90;;;;;;5065083;28;20048;-80
2023/04/12 10:17:46;;;;;;;9.68;5.93;;;10.40;99.90;;;;;;5071102;28;20044;-80
2023/04/12 10:20:13;;;;;;;16.88;9.05;;;10.30;99.90;;;;;;5070349;28;20054;-80
2023/04/12 10:22:45;;;;;;;14.45;8.50;;;10.30;99.90;;;;;;5073120;28;20591;-82
2023/04/12 10:25:17;;;;;;;10.43;6.70;;;10.50;99.90;;;;;;5056913;28;20052;-81
2023/04/12 10:27:44;;;;;;;7.70;6.07;;;10.70;99.90;;;;;;5052342;28;20044;-79
2023/04/12 10:30:30;;;;;;;12.27;6.18;;;10.90;99.90;;;;;;5062145;28;20056;-81
2023/04/12 10:33:01;;;;;;;7.95;6.55;;;10.90;99.90;;;;;;5064998;28;20047;-81
2023/04/12 10:35:27;;;;;;;10.30;6.97;;;11.10;99.90;;;;;;5063127;28;20063;-83
2023/04/12 10:38:00;;;;;;;9.60;6.22;;;11.80;99.90;;;;;;5036618;28;20084;-81
2023/04/12 10:40:26;;;;;;;10.18;5.68;;;12.60;99.90;;;;;;5069455;28;20052;-83
2023/04/12 10:43:25;;;;;;;11.32;5.38;;;12.70;99.90;;;;;;5052623;28;20079;-80
2023/04/12 10:45:50;;;;;;;7.45;4.50;;;12.40;59.40;;;;;;5050543;28;20095;-83
2023/04/12 10:48:38;;;;;;;7.78;5.53;;;12.10;51.80;;;;;;5065423;28;20048;-81
2023/04/12 10:51:29;;;;;;;12.05;5.25;;;12.70;99.90;;;;;;5076711;28;20048;-82
2023/04/12 10:54:07;;;;;;;8.30;4.10;;;13.40;76.80;;;;;;5070642;28;20048;-82
2023/04/12 10:56:46;;;;;;;8.00;4.10;;;14.10;17.80;;;;;;5070074;28;20048;-82
2023/04/12 10:59:15;;;;;;;7.72;3.53;;;14.70;1.00;;;;;;5069594;28;20041;-83
2023/04/12 11:02:08;;;;;;;9.68;3.40;;;15.80;19.70;;;;;;5052086;28;20044;-82
2023/04/12 11:04:34;;;;;;;7.78;3.40;;;16.90;1.00;;;;;;5052923;28;20041;-82
2023/04/12 11:07:10;;;;;;;8.02;3.00;;;17.40;1.00;;;;;;5054169;28;20044;-82
2023/04/12 11:09:36;;;;;;;5.15;2.40;;;18.30;1.00;;;;;;5052219;28;20086;-86
2023/04/12 11:12:05;;;;;;;4.68;2.20;;;18.20;99.90;;;;;;5070835;28;20037;-82
2023/04/12 11:14:44;;;;;;;7.60;2.35;;;18.30;99.90;;;;;;5063098;28;20036;-86
2023/04/12 11:17:13;;;;;;;6.88;2.40;;;17.90;99.90;;;;;;5046404;28;20044;-81
2023/04/12 11:20:12;;;;;;;4.63;2.40;;;18.10;1.00;;;;;;5066026;28;20048;-81
2023/04/12 11:22:39;;;;;;;4.50;2.20;;;17.60;99.90;;;;;;5018004;28;20067;-83
2023/04/12 11:25:06;;;;;;;6.13;2.47;;;17.00;1.00;;;;;;5052048;28;20048;-83
2023/04/12 11:27:31;;;;;;;7.38;2.30;;;17.00;1.00;;;;;;5048582;28;20040;-84
2023/04/12 11:29:59;;;;;;;6.60;1.92;;;17.70;1.00;;;;;;5043691;28;20052;-84
2023/04/12 11:32:27;;;;;;;4.47;1.75;;;18.50;99.90;;;;;;5057239;28;20288;-81
2023/04/12 11:34:55;;;;;;;4.68;1.85;;;18.30;42.40;;;;;;5068333;28;20052;-81
2023/04/12 11:37:21;;;;;;;5.90;1.60;;;17.50;99.90;;;;;;5052757;28;20398;-83
2023/04/12 11:39:50;;;;;;;6.05;1.67;;;17.30;99.90;;;;;;5059733;28;20117;-83
2023/04/12 11:42:23;;;;;;;7.00;2.05;;;17.30;91.40;;;;;;5053252;28;20121;-83
2023/04/12 11:44:49;;;;;;;6.75;1.80;;;18.30;99.90;;;;;;5039478;28;20037;-86
2023/04/12 11:47:20;;;;;;;5.10;1.75;;;19.60;57.30;;;;;;5061397;28;20048;-83
2023/04/12 11:49:57;;;;;;;9.20;1.90;;;19.40;1.00;;;;;;5070873;28;20041;-84
2023/04/12 11:52:32;;;;;;;7.28;2.03;;;18.20;1.00;;;;;;5063709;28;20052;-83
2023/04/12 11:55:05;;;;;;;8.30;2.20;;;16.90;1.00;;;;;;5069226;28;20040;-83
2023/04/12 11:57:31;;;;;;;6.93;1.67;;;16.10;1.00;;;;;;5053158;28;20052;-83
2023/04/12 11:59:59;;;;;;;11.65;1.88;;;15.60;1.00;;;;;;5036644;28;20051;-82
2023/04/12 12:02:25;;;;;;;5.53;1.45;;;15.20;1.00;;;;;;5053062;28;20515;-83
2023/04/12 12:04:51;;;;;;;6.32;1.60;;;14.80;1.00;;;;;;5068282;28;20402;-83
2023/04/12 12:07:19;;;;;;;8.10;1.33;;;14.30;1.00;;;;;;5054517;28;20052;-82
2023/04/12 12:09:45;;;;;;;7.10;2.10;;;14.00;1.00;;;;;;5049733;28;20398;-82
2023/04/12 12:12:12;;;;;;;7.95;1.42;;;13.80;1.00;;;;;;5058122;28;20080;-82
2023/04/12 12:14:39;;;;;;;9.13;1.65;;;13.90;1.00;;;;;;5052794;28;20084;-84
2023/04/12 12:17:13;;;;;;;9.80;2.20;;;14.30;1.00;;;;;;5060567;28;20131;-82
2023/04/12 12:19:41;;;;;;;5.50;1.63;;;14.70;1.00;;;;;;5052509;28;20142;-84
2023/04/12 12:22:17;;;;;;;7.13;1.60;;;15.70;1.00;;;;;;5043524;28;20047;-83
2023/04/12 12:24:57;;;;;;;7.78;1.30;;;15.90;1.00;;;;;;5080589;28;20052;-83
2023/04/12 12:27:29;;;;;;;7.10;1.50;;;16.10;1.00;;;;;;5043097;28;20044;-83
2023/04/12 12:29:55;;;;;;;8.18;1.45;;;16.10;1.00;;;;;;5045443;28;20127;-86
2023/04/12 12:32:22;;;;;;;8.43;2.22;;;16.00;1.00;;;;;;5068181;28;20123;-83
2023/04/12 12:34:55;;;;;;;9.25;2.83;;;15.90;1.00;;;;;;5073691;28;20489;-82
2023/04/12 12:37:26;;;;;;;8.10;1.52;;;15.90;1.00;;;;;;5068262;28;20064;-82
2023/04/12 12:40:15;;;;;;;8.70;1.42;;;15.80;1.00;;;;;;5051948;28;20490;-82
2023/04/12 12:42:49;;;;;;;6.43;1.27;;;16.10;1.00;;;;;;5079729;28;20543;-83
2023/04/12 12:45:16;;;;;;;10.00;2.65;;;16.70;1.00;;;;;;5085089;28;20051;-83
2023/04/12 12:48:00;;;;;;;6.40;1.60;;;17.50;1.00;;;;;;5034362;28;20102;-83
2023/04/12 12:50:28;;;;;;;8.20;1.13;;;17.80;1.00;;;;;;5051451;28;20052;-83
2023/04/12 12:52:55;;;;;;;15.02;4.90;;;17.80;1.00;;;;;;5051531;28;20417;-84
2023/04/12 12:55:23;;;;;;;9.35;2.03;;;17.80;1.00;;;;;;5065066;28;20079;-83
2023/04/12 12:57:52;;;;;;;8.20;1.92;;;17.50;1.00;;;;;;5048435;28;20041;-83
2023/04/12 13:00:19;;;;;;;4.88;1.50;;;16.90;1.00;;;;;;5049655;28;20135;-83
2023/04/12 13:02:45;;;;;;;5.15;1.23;;;16.30;1.00;;;;;;5050878;28;20493;-88